Nisyros — ZDKC2 — position and weather

sailwx.info

Track history (hours):
 
Tides and Currents Weather Stations Pressure Air Temp Water Temp Dewpoint Dewpoint Depression Visibility Wind Speed Wind Dir Waves Ship Positions

Nisyros

Last reported at 2017-Sep-24 17:24 UTC. Time now 2017-Sep-24 21:11 UTC.
Position N 36°07' W 005°22'.

Length 102 m; draft 7.3 m.

Type: Tanker. MMSI: 236590000.

Date/timePositionNaut miles runAvg speedWind from/ knotsBaromVisibWave heightAir tempDewpointWater temp
2017-Sep-24 17:24N 36°07' W 005°22'2 0.2
2017-Sep-24 05:25N 36°09' W 005°23'0 0.1
2017-Sep-24 04:55N 36°09' W 005°23'0 0.1
2017-Sep-24 04:28N 36°09' W 005°23'0 0.2
2017-Sep-24 03:55N 36°09' W 005°23'0 0.0
2017-Sep-24 03:19N 36°09' W 005°23'0 0.0
2017-Sep-24 01:31N 36°09' W 005°23'0 0.4
2017-Sep-24 01:22N 36°09' W 005°23'0 0.3
2017-Sep-24 00:58N 36°09' W 005°23'0 0.0
2017-Sep-24 00:25N 36°09' W 005°23'  
2017-Sep-21 06:50N 36°01' W 005°25'411.6
2017-Sep-21 06:30N 36°05' W 005°23'3 0.2
2017-Sep-20 19:34N 36°07' W 005°22'0 2.6
2017-Sep-20 19:29N 36°07' W 005°23'2 0.1
2017-Sep-20 05:32N 36°09' W 005°22'0 0.0
2017-Sep-20 05:20N 36°09' W 005°22'0 0.0
2017-Sep-20 04:59N 36°09' W 005°22'0 0.0
2017-Sep-20 04:29N 36°09' W 005°22'0 0.2
2017-Sep-20 03:59N 36°09' W 005°22'0 0.0
2017-Sep-20 03:14N 36°09' W 005°22'0 0.3
2017-Sep-20 03:00N 36°09' W 005°22'1 1.9
2017-Sep-20 02:30N 36°08' W 005°22'0 0.0
2017-Sep-19 23:48N 36°08' W 005°22'1 0.2
2017-Sep-19 19:33N 36°09' W 005°23'0 0.1
2017-Sep-19 19:30N 36°09' W 005°23'0 0.1
2017-Sep-19 18:51N 36°09' W 005°23'0 0.2
2017-Sep-19 18:30N 36°09' W 005°23'0 0.0
2017-Sep-19 18:00N 36°09' W 005°23'0 0.0
2017-Sep-19 17:30N 36°09' W 005°23'0 0.2
2017-Sep-19 17:00N 36°09' W 005°23'0 0.1
2017-Sep-19 16:30N 36°09' W 005°23'0 0.3
2017-Sep-19 16:01N 36°09' W 005°23'2 0.1
2017-Sep-18 15:27N 36°07' W 005°22'1 0.1
2017-Sep-17 18:00N 36°08' W 005°23'1 0.4
2017-Sep-17 15:18N 36°09' W 005°23'3 0.2
2017-Sep-17 02:04N 36°06' W 005°23'110.4
2017-Sep-17 01:59N 36°05' W 005°23'511.5
2017-Sep-17 01:30N 36°00' W 005°24'6 0.5
2017-Sep-16 12:40N 35°56' W 005°30'1 7.3
2017-Sep-16 12:30N 35°57' W 005°29'3 6.9
2017-Sep-16 12:00N 35°59' W 005°26'4 7.5
2017-Sep-16 11:28N 36°03' W 005°23'6 0.4
2017-Sep-15 20:15N 36°09' W 005°22'1 0.0
2017-Sep-14 19:55N 36°09' W 005°23'0 0.0
2017-Sep-14 18:31N 36°09' W 005°23'0 0.1
2017-Sep-14 18:28N 36°09' W 005°23'0 0.5
2017-Sep-14 18:00N 36°09' W 005°23'  
Track history (hours):
 
Tides and Currents Weather Stations Pressure Air Temp Water Temp Dewpoint Dewpoint Depression Visibility Wind Speed Wind Dir Waves Ship Positions

Nisyros

Last reported at 2017-Sep-24 17:24 UTC. Time now 2017-Sep-24 21:11 UTC.
Position N 36°07' W 005°22'.

Length 102 m; draft 7.3 m.

Type: Tanker. MMSI: 236590000.

Date/timePositionNaut miles runAvg speedWind from/ knotsBaromVisibWave heightAir tempDewpointWater temp
2017-Sep-24 17:24N 36°07' W 005°22'2 0.2
2017-Sep-24 05:25N 36°09' W 005°23'0 0.1
2017-Sep-24 04:55N 36°09' W 005°23'0 0.1
2017-Sep-24 04:28N 36°09' W 005°23'0 0.2
2017-Sep-24 03:55N 36°09' W 005°23'0 0.0
2017-Sep-24 03:19N 36°09' W 005°23'0 0.0
2017-Sep-24 01:31N 36°09' W 005°23'0 0.4
2017-Sep-24 01:22N 36°09' W 005°23'0 0.3
2017-Sep-24 00:58N 36°09' W 005°23'0 0.0
2017-Sep-24 00:25N 36°09' W 005°23'  
2017-Sep-21 06:50N 36°01' W 005°25'411.6
2017-Sep-21 06:30N 36°05' W 005°23'3 0.2
2017-Sep-20 19:34N 36°07' W 005°22'0 2.6
2017-Sep-20 19:29N 36°07' W 005°23'2 0.1
2017-Sep-20 05:32N 36°09' W 005°22'0 0.0
2017-Sep-20 05:20N 36°09' W 005°22'0 0.0
2017-Sep-20 04:59N 36°09' W 005°22'0 0.0
2017-Sep-20 04:29N 36°09' W 005°22'0 0.2
2017-Sep-20 03:59N 36°09' W 005°22'0 0.0
2017-Sep-20 03:14N 36°09' W 005°22'0 0.3
2017-Sep-20 03:00N 36°09' W 005°22'1 1.9
2017-Sep-20 02:30N 36°08' W 005°22'0 0.0
2017-Sep-19 23:48N 36°08' W 005°22'1 0.2
2017-Sep-19 19:33N 36°09' W 005°23'0 0.1
2017-Sep-19 19:30N 36°09' W 005°23'0 0.1
2017-Sep-19 18:51N 36°09' W 005°23'0 0.2
2017-Sep-19 18:30N 36°09' W 005°23'0 0.0
2017-Sep-19 18:00N 36°09' W 005°23'0 0.0
2017-Sep-19 17:30N 36°09' W 005°23'0 0.2
2017-Sep-19 17:00N 36°09' W 005°23'0 0.1
2017-Sep-19 16:30N 36°09' W 005°23'0 0.3
2017-Sep-19 16:01N 36°09' W 005°23'2 0.1
2017-Sep-18 15:27N 36°07' W 005°22'1 0.1
2017-Sep-17 18:00N 36°08' W 005°23'1 0.4
2017-Sep-17 15:18N 36°09' W 005°23'3 0.2
2017-Sep-17 02:04N 36°06' W 005°23'110.4
2017-Sep-17 01:59N 36°05' W 005°23'511.5
2017-Sep-17 01:30N 36°00' W 005°24'6 0.5
2017-Sep-16 12:40N 35°56' W 005°30'1 7.3
2017-Sep-16 12:30N 35°57' W 005°29'3 6.9
2017-Sep-16 12:00N 35°59' W 005°26'4 7.5
2017-Sep-16 11:28N 36°03' W 005°23'6 0.4
2017-Sep-15 20:15N 36°09' W 005°22'1 0.0
2017-Sep-14 19:55N 36°09' W 005°23'0 0.0
2017-Sep-14 18:31N 36°09' W 005°23'0 0.1
2017-Sep-14 18:28N 36°09' W 005°23'0 0.5
2017-Sep-14 18:00N 36°09' W 005°23'  

Dump ship's entire track history